Time;durP1;ratioP1;P1;durP2;ratioP2;P2;SDS_P1;SDS_P2;PMS_P1;PMS_P2;Temp;Humidity;BMP_temperature;BMP_pressure;BME280_temperature;BME280_humidity;BME280_pressure;Samples;Min_cycle;Max_cycle;Signal;HPM_P1;HPM_P2
2023/01/17 00:01:52;;;;;;;7.95;4.28;;;;;;;-4.42;100.00;98418.81;5041437;28;20037;-75
2023/01/17 00:09:53;;;;;;;7.93;3.97;;;;;;;-4.55;100.00;98419.13;5060391;28;20062;-76
2023/01/17 00:12:24;;;;;;;6.22;2.72;;;;;;;-4.56;100.00;98408.75;5058558;28;20467;-78
2023/01/17 00:14:51;;;;;;;10.60;4.55;;;;;;;-4.54;100.00;98418.13;5057794;28;20471;-76
2023/01/17 00:17:16;;;;;;;8.05;3.22;;;;;;;-4.48;100.00;98424.63;5040937;28;20470;-76
2023/01/17 01:34:33;;;;;;;5.57;2.58;;;;;;;-4.35;100.00;98422.53;5058357;28;20041;-75
2023/01/17 01:36:59;;;;;;;7.63;3.17;;;;;;;-4.29;100.00;98418.53;5039389;28;20037;-77
2023/01/17 01:39:24;;;;;;;4.75;2.38;;;;;;;-4.33;100.00;98406.69;5055800;28;20028;-74
2023/01/17 01:41:53;;;;;;;8.00;2.65;;;;;;;-4.28;100.00;98409.72;5072313;28;20471;-77
2023/01/17 01:44:47;;;;;;;4.70;2.47;;;;;;;-4.16;100.00;98415.63;5055979;28;20074;-77
2023/01/17 01:47:35;;;;;;;7.60;3.42;;;;;;;-4.05;100.00;98415.47;5056027;28;20026;-78
2023/01/17 01:50:04;;;;;;;7.82;3.17;;;;;;;-4.01;100.00;98420.31;5039280;28;20185;-76
2023/01/17 01:52:32;;;;;;;6.32;2.80;;;;;;;-3.94;100.00;98424.97;5039324;28;20428;-78
2023/01/17 01:55:05;;;;;;;10.43;3.03;;;;;;;-3.99;100.00;98401.81;5039328;28;20463;-76
2023/01/17 01:57:34;;;;;;;7.72;3.78;;;;;;;-3.83;100.00;98419.59;5072478;28;20029;-77
2023/01/17 02:00:10;;;;;;;5.97;2.88;;;;;;;-3.79;100.00;98424.41;5056023;28;20047;-77
2023/01/17 02:02:36;;;;;;;6.70;3.13;;;;;;;-3.89;100.00;98418.38;5072213;28;20029;-77
2023/01/17 02:05:02;;;;;;;6.90;2.85;;;;;;;-3.91;100.00;98411.59;5055233;28;20043;-76
2023/01/17 02:07:39;;;;;;;4.50;2.75;;;;;;;-3.93;100.00;98410.91;5039099;28;20467;-77
2023/01/17 02:10:05;;;;;;;7.60;2.58;;;;;;;-3.91;100.00;98422.91;5072391;28;20040;-76
2023/01/17 02:12:31;;;;;;;4.55;2.63;;;;;;;-3.89;100.00;98421.00;5022971;28;20044;-77
2023/01/17 02:14:57;;;;;;;6.18;2.40;;;;;;;-3.84;100.00;98415.28;5038898;28;20111;-77
2023/01/17 02:17:35;;;;;;;4.00;2.05;;;;;;;-3.76;100.00;98423.28;5039019;28;20032;-77
2023/01/17 02:20:22;;;;;;;8.82;3.00;;;;;;;-3.72;100.00;98431.72;5056233;28;20040;-77
2023/01/17 02:23:21;;;;;;;6.90;3.42;;;;;;;-3.70;100.00;98429.78;5055666;28;20029;-76
2023/01/17 02:26:28;;;;;;;9.30;2.53;;;;;;;-3.76;100.00;98429.38;5039243;28;20029;-75
2023/01/17 02:29:38;;;;;;;7.43;3.55;;;;;;;-3.86;100.00;98436.47;5042048;28;20040;-76
2023/01/17 02:32:07;;;;;;;5.05;2.72;;;;;;;-3.92;100.00;98437.00;5055771;28;20093;-76
2023/01/17 02:34:50;;;;;;;8.02;2.85;;;;;;;-3.96;100.00;98434.81;5071591;28;20025;-76
2023/01/17 02:37:29;;;;;;;5.35;2.75;;;;;;;-3.99;100.00;98439.38;5038992;28;20038;-78
2023/01/17 02:40:01;;;;;;;13.35;2.90;;;;;;;-3.95;100.00;98437.28;5039058;28;20055;-77
2023/01/17 02:42:33;;;;;;;8.13;3.47;;;;;;;-3.92;100.00;98444.06;5038764;28;20032;-77
2023/01/17 02:45:01;;;;;;;5.05;3.25;;;;;;;-3.91;100.00;98446.56;5038953;28;20042;-77
2023/01/17 02:47:28;;;;;;;4.88;2.72;;;;;;;-3.89;100.00;98452.50;5038811;28;20046;-76
2023/01/17 02:50:07;;;;;;;9.80;2.45;;;;;;;-3.79;100.00;98453.28;5038898;28;20029;-76
2023/01/17 02:52:40;;;;;;;9.45;2.83;;;;;;;-3.70;100.00;98466.56;5055382;28;20033;-76
2023/01/17 02:55:36;;;;;;;3.58;1.98;;;;;;;-3.62;100.00;98466.69;5055490;28;20127;-77
2023/01/17 02:58:12;;;;;;;11.48;2.40;;;;;;;-3.60;100.00;98462.09;5071632;28;20055;-76
2023/01/17 03:00:41;;;;;;;4.75;2.33;;;;;;;-3.65;100.00;98465.16;5071709;28;20041;-77
2023/01/17 03:03:26;;;;;;;7.20;2.78;;;;;;;-3.70;100.00;98471.81;5058857;28;20041;-76
2023/01/17 03:06:12;;;;;;;4.22;2.38;;;;;;;-3.74;100.00;98455.50;5075584;28;20024;-76
2023/01/17 03:08:40;;;;;;;11.30;3.00;;;;;;;-3.76;100.00;98458.28;5075478;28;20033;-77
2023/01/17 03:11:08;;;;;;;7.80;2.72;;;;;;;-3.78;100.00;98457.59;5042248;28;20471;-76
2023/01/17 03:13:34;;;;;;;6.05;2.22;;;;;;;-3.77;100.00;98455.78;5042412;28;20036;-78
2023/01/17 03:16:02;;;;;;;4.78;2.17;;;;;;;-3.73;100.00;98456.31;5042558;28;20040;-77
2023/01/17 03:18:28;;;;;;;4.28;2.25;;;;;;;-3.71;100.00;98455.19;5042341;28;20056;-76
2023/01/17 03:20:53;;;;;;;2.30;1.50;;;;;;;-3.71;100.00;98455.19;5042372;28;20484;-76
2023/01/17 03:23:19;;;;;;;3.25;1.58;;;;;;;-3.66;100.00;98450.34;5041735;28;20036;-77
2023/01/17 03:25:45;;;;;;;5.07;1.92;;;;;;;-3.77;100.00;98446.09;5058446;28;20055;-77
2023/01/17 03:28:11;;;;;;;5.43;2.20;;;;;;;-3.89;100.00;98447.25;5042428;28;20089;-76
2023/01/17 03:30:36;;;;;;;5.07;2.22;;;;;;;-4.07;100.00;98438.44;5042090;28;20032;-76
2023/01/17 03:33:02;;;;;;;4.07;3.05;;;;;;;-4.04;100.00;98443.38;5041873;28;20123;-76
2023/01/17 03:35:28;;;;;;;5.03;2.30;;;;;;;-4.10;100.00;98442.16;5042178;28;20028;-75
2023/01/17 03:37:54;;;;;;;5.45;2.08;;;;;;;-4.11;100.00;98440.47;5041808;28;20028;-76
2023/01/17 03:40:20;;;;;;;6.07;2.63;;;;;;;-4.16;100.00;98439.25;5058422;28;20064;-76
2023/01/17 03:42:45;;;;;;;9.70;2.45;;;;;;;-4.16;100.00;98439.25;5041727;28;20035;-76
2023/01/17 03:45:11;;;;;;;3.55;1.92;;;;;;;-4.14;100.00;98446.00;5041730;28;20032;-76
2023/01/17 03:47:37;;;;;;;4.43;2.22;;;;;;;-4.21;100.00;98448.38;5041604;28;20074;-76
2023/01/17 03:50:03;;;;;;;4.10;2.25;;;;;;;-4.31;100.00;98457.19;5041815;28;20490;-75
2023/01/17 03:52:28;;;;;;;0.95;0.93;;;;;;;-4.35;100.00;98455.81;5041780;28;20036;-76
2023/01/17 03:54:54;;;;;;;3.70;1.92;;;;;;;-4.35;100.00;98458.44;5041804;28;20036;-77
2023/01/17 03:57:20;;;;;;;3.13;2.40;;;;;;;-4.38;100.00;98456.09;5041525;28;20067;-76
2023/01/17 03:59:46;;;;;;;5.55;2.17;;;;;;;-4.38;100.00;98466.59;5041637;28;20120;-76
2023/01/17 04:02:12;;;;;;;7.65;3.00;;;;;;;-4.43;100.00;98464.38;5041565;28;20029;-77
2023/01/17 04:04:37;;;;;;;5.80;2.88;;;;;;;-4.53;100.00;98460.91;5041258;28;20386;-76
2023/01/17 04:07:03;;;;;;;9.98;2.45;;;;;;;-4.51;100.00;98459.00;5041353;28;20393;-75
2023/01/17 04:09:32;;;;;;;6.10;2.67;;;;;;;-4.53;100.00;98466.16;5041669;28;20475;-76
2023/01/17 04:11:59;;;;;;;8.40;2.95;;;;;;;-4.55;100.00;98466.31;5041630;28;20481;-76
2023/01/17 04:14:25;;;;;;;4.47;2.63;;;;;;;-4.58;100.00;98456.06;5040051;28;20047;-76
2023/01/17 04:16:51;;;;;;;5.90;2.55;;;;;;;-4.59;100.00;98457.06;5041269;28;20036;-76
2023/01/17 04:19:17;;;;;;;9.73;2.70;;;;;;;-4.55;100.00;98454.97;5057550;28;20040;-76
2023/01/17 04:21:43;;;;;;;5.10;2.83;;;;;;;-4.47;100.00;98452.53;5057929;28;20038;-76
2023/01/17 04:24:09;;;;;;;7.35;2.90;;;;;;;-4.50;100.00;98445.75;5040921;28;20036;-76
2023/01/17 04:26:34;;;;;;;2.85;1.90;;;;;;;-4.54;100.00;98446.97;5040792;28;20033;-76
2023/01/17 04:29:00;;;;;;;4.90;2.13;;;;;;;-4.60;100.00;98449.31;5041094;28;20498;-76
2023/01/17 04:31:26;;;;;;;6.13;2.90;;;;;;;-4.69;100.00;98456.19;5040926;28;20135;-77
2023/01/17 04:33:52;;;;;;;7.55;2.67;;;;;;;-4.72;100.00;98459.94;5041027;28;20072;-75
2023/01/17 04:36:18;;;;;;;6.57;2.40;;;;;;;-4.78;100.00;98468.34;5057133;28;20024;-75
2023/01/17 04:38:43;;;;;;;5.68;2.97;;;;;;;-4.86;100.00;98460.31;5039918;28;20063;-76
2023/01/17 04:41:09;;;;;;;7.03;3.47;;;;;;;-4.90;100.00;98462.38;5040902;28;20085;-76
2023/01/17 04:43:35;;;;;;;11.00;4.00;;;;;;;-4.94;100.00;98466.22;5040212;28;20113;-76
2023/01/17 04:46:01;;;;;;;6.63;2.95;;;;;;;-5.02;100.00;98476.56;5040828;28;20063;-77
2023/01/17 04:48:26;;;;;;;6.85;3.03;;;;;;;-5.25;100.00;98472.47;5040449;28;20420;-76
2023/01/17 04:51:00;;;;;;;4.95;3.15;;;;;;;-5.21;100.00;98481.72;5040742;28;20044;-76
2023/01/17 04:53:25;;;;;;;6.95;3.13;;;;;;;-5.25;100.00;98482.94;5040668;28;20037;-77
2023/01/17 04:55:51;;;;;;;11.68;3.47;;;;;;;-5.30;100.00;98485.94;5040427;28;20382;-76
2023/01/17 04:58:17;;;;;;;8.32;2.67;;;;;;;-5.23;100.00;98491.50;5040589;28;20036;-76
2023/01/17 05:00:42;;;;;;;6.05;2.35;;;;;;;-5.11;100.00;98487.81;5040108;28;20029;-76
2023/01/17 05:03:08;;;;;;;3.33;2.20;;;;;;;-5.12;100.00;98494.84;5040030;28;20119;-76
2023/01/17 05:05:34;;;;;;;5.88;2.08;;;;;;;-5.09;100.00;98499.00;5040449;28;20386;-77
2023/01/17 05:08:00;;;;;;;4.38;2.60;;;;;;;-5.07;100.00;98501.50;5056400;28;20044;-77
2023/01/17 05:10:26;;;;;;;5.68;2.35;;;;;;;-5.23;100.00;98497.56;5040257;28;20039;-76
2023/01/17 05:12:55;;;;;;;4.32;2.28;;;;;;;-5.40;100.00;98504.25;5040168;28;20470;-77
2023/01/17 05:15:21;;;;;;;5.72;2.08;;;;;;;-5.62;100.00;98481.66;5072950;28;20071;-76
2023/01/17 05:17:47;;;;;;;6.25;2.17;;;;;;;-5.60;100.00;98510.34;5040123;28;20545;-76
2023/01/17 05:20:13;;;;;;;6.22;2.20;;;;;;;-5.58;100.00;98508.44;5039966;28;20040;-77
2023/01/17 05:22:39;;;;;;;9.20;2.90;;;;;;;-5.64;100.00;98512.38;5039812;28;20025;-76
2023/01/17 05:25:05;;;;;;;4.93;2.72;;;;;;;-5.68;100.00;98513.59;5039641;28;20039;-76
2023/01/17 05:27:30;;;;;;;4.47;2.72;;;;;;;-5.73;100.00;98507.09;5040003;28;20421;-76
2023/01/17 05:29:56;;;;;;;5.95;2.58;;;;;;;-5.75;100.00;98520.28;5039821;28;20066;-77
2023/01/17 05:32:22;;;;;;;5.13;1.85;;;;;;;-5.83;100.00;98518.31;5039700;28;20029;-76
2023/01/17 05:34:49;;;;;;;3.42;2.38;;;;;;;-5.93;100.00;98517.41;5039970;28;20032;-76
2023/01/17 05:37:16;;;;;;;7.35;2.17;;;;;;;-6.03;100.00;98524.41;5040048;28;20024;-76
2023/01/17 05:39:41;;;;;;;5.63;1.85;;;;;;;-5.94;100.00;98526.25;5039642;28;20036;-77
2023/01/17 05:42:07;;;;;;;3.92;1.80;;;;;;;-5.80;100.00;98525.06;5056240;28;20029;-74
2023/01/17 05:44:33;;;;;;;3.60;1.52;;;;;;;-5.68;100.00;98526.69;5039385;28;20046;-76
2023/01/17 05:47:01;;;;;;;4.78;2.60;;;;;;;-5.59;100.00;98525.06;5039441;28;20071;-78
2023/01/17 05:49:27;;;;;;;9.68;2.08;;;;;;;-5.68;100.00;98520.63;5039418;28;20035;-76
2023/01/17 05:51:53;;;;;;;3.92;2.33;;;;;;;-5.76;100.00;98523.88;5039533;28;20029;-77
2023/01/17 05:54:18;;;;;;;2.15;1.60;;;;;;;-5.79;100.00;98524.97;5039457;28;20382;-77
2023/01/17 05:56:44;;;;;;;1.80;1.10;;;;;;;-5.77;100.00;98522.19;5039651;28;20040;-75
2023/01/17 05:59:10;;;;;;;1.73;1.35;;;;;;;-5.69;100.00;98524.19;5039081;28;20025;-75
2023/01/17 06:01:36;;;;;;;8.80;2.90;;;;;;;-5.71;100.00;98520.88;5039318;28;20123;-74
2023/01/17 06:04:01;;;;;;;2.53;1.55;;;;;;;-5.80;100.00;98525.06;5039146;28;20039;-74
2023/01/17 06:06:27;;;;;;;6.75;1.88;;;;;;;-5.84;100.00;98518.47;5039385;28;20078;-76
2023/01/17 06:08:53;;;;;;;2.63;1.55;;;;;;;-5.80;100.00;98522.47;5039292;28;20386;-76
2023/01/17 06:11:18;;;;;;;3.22;1.90;;;;;;;-5.87;100.00;98524.78;5039230;28;20032;-73
2023/01/17 06:13:44;;;;;;;1.52;1.10;;;;;;;-5.80;100.00;98525.06;5039267;28;20028;-75
2023/01/17 06:16:10;;;;;;;1.65;1.52;;;;;;;-5.66;100.00;98519.53;5039551;28;20043;-75
2023/01/17 06:18:36;;;;;;;4.30;1.90;;;;;;;-5.57;100.00;98515.31;5039129;28;20499;-75
2023/01/17 06:21:02;;;;;;;4.22;1.70;;;;;;;-5.57;100.00;98523.16;5055409;28;20112;-77
2023/01/17 06:23:28;;;;;;;2.83;1.90;;;;;;;-5.72;100.00;98527.88;5038926;28;20028;-75
2023/01/17 06:25:54;;;;;;;5.57;2.20;;;;;;;-5.79;100.00;98543.28;5039050;28;20050;-78
2023/01/17 06:28:21;;;;;;;5.63;2.15;;;;;;;-5.84;100.00;98544.63;5055488;28;20033;-77
2023/01/17 06:30:47;;;;;;;4.75;1.65;;;;;;;-5.91;100.00;98538.22;5071927;28;20032;-78
2023/01/17 06:33:14;;;;;;;13.52;1.85;;;;;;;-5.90;100.00;98539.88;5039076;28;20025;-78
2023/01/17 06:35:47;;;;;;;2.70;1.50;;;;;;;-5.94;100.00;98543.75;5038961;28;20036;-77
2023/01/17 06:38:12;;;;;;;4.63;2.05;;;;;;;-6.03;100.00;98551.41;5059804;28;20036;-77
2023/01/17 06:40:38;;;;;;;6.78;2.50;;;;;;;-6.11;100.00;98560.81;5043144;28;20048;-77
2023/01/17 06:43:04;;;;;;;1.85;1.50;;;;;;;-6.14;100.00;98558.44;5059193;28;20036;-78
2023/01/17 06:45:32;;;;;;;1.95;1.70;;;;;;;-6.16;100.00;98563.00;5043184;28;20072;-77
2023/01/17 06:47:59;;;;;;;4.03;1.30;;;;;;;-6.22;100.00;98549.44;5059650;28;20071;-77
2023/01/17 06:50:26;;;;;;;3.95;2.40;;;;;;;-6.19;100.00;98566.69;5059124;28;20502;-77
2023/01/17 06:52:56;;;;;;;0.80;0.80;;;;;;;-6.09;100.00;98571.97;5059309;28;20025;-76
2023/01/17 06:55:23;;;;;;;21.45;1.67;;;;;;;-5.85;100.00;98566.50;5042771;28;20040;-75
2023/01/17 06:57:49;;;;;;;6.25;1.90;;;;;;;-5.72;100.00;98567.16;5042142;28;20119;-74
2023/01/17 07:00:16;;;;;;;7.97;0.98;;;;;;;-5.73;100.00;98569.91;5075956;28;20108;-76
2023/01/17 07:02:41;;;;;;;4.35;1.58;;;;;;;-5.81;100.00;98576.59;5042310;28;20445;-74
2023/01/17 07:05:08;;;;;;;2.92;1.48;;;;;;;-5.91;100.00;98578.31;5042583;28;20116;-74
2023/01/17 07:07:33;;;;;;;1.80;1.30;;;;;;;-5.95;100.00;98590.03;5042321;28;20039;-75
2023/01/17 07:10:00;;;;;;;2.22;1.67;;;;;;;-5.97;100.00;98587.53;5042219;28;20040;-75
2023/01/17 07:12:28;;;;;;;9.80;1.65;;;;;;;-5.90;100.00;98593.06;5058531;28;20454;-76
2023/01/17 07:14:54;;;;;;;1.35;1.05;;;;;;;-5.87;100.00;98594.59;5042457;28;20052;-75
2023/01/17 07:17:20;;;;;;;3.30;1.30;;;;;;;-5.84;100.00;98597.78;5042613;28;20052;-75
2023/01/17 07:19:45;;;;;;;4.68;2.17;;;;;;;-5.88;100.00;98596.38;5042362;28;20457;-75
2023/01/17 07:22:11;;;;;;;3.50;1.67;;;;;;;-5.89;100.00;98599.94;5042449;28;20024;-79
2023/01/17 07:24:37;;;;;;;3.08;1.27;;;;;;;-5.99;100.00;98601.69;5042103;28;20493;-75
2023/01/17 07:27:02;;;;;;;6.22;1.70;;;;;;;-6.01;100.00;98614.03;5042262;28;20123;-77
2023/01/17 07:29:28;;;;;;;4.90;2.08;;;;;;;-6.02;100.00;98613.22;5042293;28;20028;-76
2023/01/17 07:31:54;;;;;;;5.55;1.75;;;;;;;-5.99;100.00;98615.59;5042097;28;20120;-78
2023/01/17 07:34:20;;;;;;;4.80;1.95;;;;;;;-5.99;100.00;98618.19;5042029;28;20070;-76
2023/01/17 07:36:48;;;;;;;9.68;3.47;;;;;;;-5.95;100.00;98626.66;5041376;28;20467;-77
2023/01/17 07:39:14;;;;;;;50.00;16.33;;;;;;;-5.84;100.00;98626.59;5042015;28;20131;-76
2023/01/17 07:41:44;;;;;;;24.02;10.05;;;;;;;-5.75;100.00;98630.22;5041511;28;20055;-76
2023/01/17 07:44:11;;;;;;;25.70;7.68;;;;;;;-5.68;100.00;98634.00;5074565;28;20028;-75
2023/01/17 07:46:37;;;;;;;15.95;8.13;;;;;;;-5.65;100.00;98625.09;5041501;28;20103;-74
2023/01/17 07:49:03;;;;;;;116.35;57.72;;;;;;;-5.58;100.00;98639.34;5041722;28;20029;-76
2023/01/17 07:51:28;;;;;;;110.20;43.40;;;;;;;-5.63;100.00;98639.72;5041564;28;20029;-76
2023/01/17 07:53:54;;;;;;;46.53;23.27;;;;;;;-5.72;100.00;98643.06;5041254;28;20037;-75
2023/01/17 07:56:20;;;;;;;51.95;23.70;;;;;;;-5.81;100.00;98641.22;5041313;28;20036;-78
2023/01/17 07:58:47;;;;;;;22.88;9.95;;;;;;;-5.90;100.00;98660.25;5041395;28;20117;-78
2023/01/17 08:01:13;;;;;;;13.18;5.07;;;;;;;-5.92;100.00;98656.94;5058123;28;20094;-77
2023/01/17 08:03:39;;;;;;;29.80;11.38;;;;;;;-6.01;100.00;98661.97;5074162;28;20052;-78
2023/01/17 08:06:26;;;;;;;33.17;14.77;;;;;;;-6.15;100.00;98672.72;5041370;28;20109;-78
2023/01/17 08:08:57;;;;;;;36.80;14.00;;;;;;;-6.34;100.00;98673.34;5041136;28;20119;-80
2023/01/17 08:11:24;;;;;;;18.17;5.60;;;;;;;-6.41;100.00;98677.38;5042066;28;20129;-75
2023/01/17 08:13:56;;;;;;;13.18;5.47;;;;;;;-6.30;100.00;98681.75;5040958;28;20043;-75
2023/01/17 08:16:23;;;;;;;14.90;6.78;;;;;;;-6.24;100.00;98684.75;5074410;28;20028;-75
2023/01/17 08:18:51;;;;;;;20.25;7.85;;;;;;;-6.23;100.00;98698.66;5074024;28;20024;-74
2023/01/17 08:21:17;;;;;;;27.08;9.95;;;;;;;-6.35;100.00;98702.19;5041348;28;20032;-76
2023/01/17 08:23:47;;;;;;;20.17;7.10;;;;;;;-6.35;100.00;98708.28;5040925;28;20119;-75
2023/01/17 08:26:20;;;;;;;20.08;9.75;;;;;;;-6.39;100.00;98700.78;5057305;28;20154;-77
2023/01/17 08:29:06;;;;;;;21.63;12.25;;;;;;;-6.40;100.00;98710.44;5041674;28;20389;-74
2023/01/17 08:31:34;;;;;;;18.98;7.15;;;;;;;-6.22;100.00;98711.63;5072933;28;20033;-76
2023/01/17 08:33:59;;;;;;;9.93;5.85;;;;;;;-6.05;100.00;98704.22;5040969;28;20024;-77
2023/01/17 08:36:27;;;;;;;20.40;7.85;;;;;;;-6.05;100.00;98710.28;5040793;28;20537;-77
2023/01/17 08:38:53;;;;;;;39.58;14.25;;;;;;;-5.93;100.00;98711.06;5057492;28;20066;-76
2023/01/17 08:41:20;;;;;;;25.90;9.90;;;;;;;-5.73;100.00;98724.34;5040621;28;20032;-77
2023/01/17 08:43:47;;;;;;;22.40;8.13;;;;;;;-5.73;100.00;98724.34;5039717;28;20182;-77
2023/01/17 08:46:13;;;;;;;24.85;8.50;;;;;;;-5.84;100.00;98722.59;5056675;28;20036;-76
2023/01/17 08:48:38;;;;;;;14.13;7.75;;;;;;;-5.81;100.00;98738.03;5040532;28;20032;-76
2023/01/17 08:51:04;;;;;;;18.85;6.72;;;;;;;-5.85;100.00;98739.22;5056558;28;20398;-75
2023/01/17 08:53:30;;;;;;;9.57;6.32;;;;;;;-5.83;100.00;98746.00;5040628;28;20028;-76
2023/01/17 08:55:58;;;;;;;8.07;4.82;;;;;;;-5.84;100.00;98754.81;5040535;28;20123;-76
2023/01/17 08:58:25;;;;;;;15.45;5.90;;;;;;;-5.91;100.00;98751.03;5057003;28;20072;-76
2023/01/17 09:00:50;;;;;;;21.70;7.20;;;;;;;-5.96;100.00;98755.81;5040031;28;20109;-76
2023/01/17 09:03:16;;;;;;;20.63;7.93;;;;;;;-6.05;100.00;98767.00;5040180;28;20075;-75
2023/01/17 09:05:42;;;;;;;18.75;10.32;;;;;;;-6.14;100.00;98763.31;5039846;28;20097;-76
2023/01/17 09:08:08;;;;;;;26.23;9.60;;;;;;;-6.09;100.00;98763.78;5056821;28;20056;-78
2023/01/17 09:10:34;;;;;;;7.63;5.05;;;;;;;-5.99;100.00;98784.84;5056109;28;20111;-76
2023/01/17 09:12:59;;;;;;;24.38;10.75;;;;;;;-5.82;100.00;98783.47;5039789;28;20166;-78
2023/01/17 09:15:25;;;;;;;17.42;7.30;;;;;;;-5.67;100.00;98794.53;5040018;28;20417;-78
2023/01/17 09:17:55;;;;;;;18.80;6.15;;;;;;;-5.52;100.00;98790.72;5039939;28;20128;-76
2023/01/17 09:20:20;;;;;;;21.63;6.50;;;;;;;-5.31;100.00;98791.59;5056362;28;20090;-76
2023/01/17 09:22:50;;;;;;;26.95;8.85;;;;;;;-5.10;100.00;98803.94;5039668;28;20036;-76
2023/01/17 09:25:16;;;;;;;39.75;10.75;;;;;;;-4.93;100.00;98821.72;5039392;28;20032;-74
2023/01/17 09:27:45;;;;;;;9.65;6.13;;;;;;;-4.97;100.00;98799.34;5040273;28;20029;-76
2023/01/17 09:30:12;;;;;;;26.73;5.97;;;;;;;-4.84;100.00;98824.53;5040015;28;20485;-76
2023/01/17 09:32:37;;;;;;;33.47;9.75;;;;;;;-4.76;100.00;98828.22;5056114;28;20028;-75
2023/01/17 09:35:06;;;;;;;38.85;12.82;;;;;;;-4.42;100.00;98823.66;5040952;28;21047;-76
2023/01/17 09:37:31;;;;;;;17.45;9.55;;;;;;;-3.91;100.00;98819.34;5040396;28;20076;-75
2023/01/17 09:39:58;;;;;;;32.25;11.63;;;;;;;-3.64;100.00;98836.31;5040164;28;20052;-77
2023/01/17 09:42:33;;;;;;;22.95;9.00;;;;;;;-3.59;100.00;98831.50;5039400;28;20485;-77
2023/01/17 09:44:59;;;;;;;23.95;11.77;;;;;;;-3.32;100.00;98830.88;5072089;28;20025;-79
2023/01/17 09:47:41;;;;;;;24.52;10.57;;;;;;;-3.43;100.00;98817.88;5056461;28;20546;-79
2023/01/17 09:50:14;;;;;;;29.87;10.47;;;;;;;-3.41;100.00;98843.03;5039611;28;20482;-79
2023/01/17 09:52:40;;;;;;;19.15;9.00;;;;;;;-3.40;100.00;98852.56;5073011;28;20549;-79
2023/01/17 09:55:06;;;;;;;35.53;11.52;;;;;;;-3.26;100.00;98838.22;5039820;28;20051;-79
2023/01/17 09:57:37;;;;;;;26.25;10.70;;;;;;;-3.08;100.00;98853.34;5039466;28;20416;-79
2023/01/17 10:00:22;;;;;;;28.88;8.45;;;;;;;-3.03;100.00;98859.84;5056175;28;20064;-79
2023/01/17 10:03:12;;;;;;;105.20;26.45;;;;;;;-2.57;100.00;98860.16;5056272;28;20040;-79
2023/01/17 10:06:06;;;;;;;78.35;24.77;;;;;;;-1.91;100.00;98854.09;5057189;28;20041;-78
2023/01/17 10:08:45;;;;;;;36.75;11.55;;;;;;;-1.47;100.00;98876.28;5088474;28;20031;-80
2023/01/17 10:11:37;;;;;;;49.70;14.93;;;;;;;-1.36;100.00;98875.28;5044536;28;20043;-79
2023/01/17 10:14:27;;;;;;;44.22;12.98;;;;;;;-1.15;100.00;98885.56;5078704;28;20025;-79
2023/01/17 10:17:15;;;;;;;22.35;7.20;;;;;;;0.11;100.00;98873.22;5058427;28;20039;-79
2023/01/17 10:20:03;;;;;;;17.58;6.10;;;;;;;1.59;100.00;98863.97;5056354;28;20078;-78
2023/01/17 10:22:37;;;;;;;13.52;6.03;;;;;;;2.79;95.77;98883.50;5073703;28;20037;-80
2023/01/17 10:25:29;;;;;;;14.25;5.05;;;;;;;2.56;96.75;98878.91;5073345;28;20025;-81
2023/01/17 10:27:57;;;;;;;12.88;4.93;;;;;;;3.43;92.17;98857.59;5073101;28;20079;-80
2023/01/17 10:30:29;;;;;;;11.35;6.32;;;;;;;4.72;86.36;98878.88;5072665;28;20124;-81
2023/01/17 10:32:56;;;;;;;17.88;6.13;;;;;;;5.43;83.32;98889.78;5039709;28;20032;-80
2023/01/17 10:35:26;;;;;;;14.68;5.53;;;;;;;5.87;83.44;98891.44;5039254;28;20485;-79
2023/01/17 10:37:57;;;;;;;16.42;6.28;;;;;;;6.07;84.28;98892.47;5072504;28;20037;-79
2023/01/17 10:40:33;;;;;;;10.25;5.25;;;;;;;5.88;83.24;98877.91;5072145;28;20034;-79
2023/01/17 10:43:43;;;;;;;26.63;11.35;;;;;;;5.78;84.28;98895.25;5055560;28;20044;-79
2023/01/17 10:46:15;;;;;;;12.55;6.78;;;;;;;6.08;85.83;98918.13;5072377;28;20032;-79
2023/01/17 10:48:43;;;;;;;23.02;11.77;;;;;;;6.58;85.79;98916.25;5039065;28;20131;-79
2023/01/17 10:51:31;;;;;;;39.92;19.35;;;;;;;6.91;85.71;98931.69;5055217;28;20083;-79
2023/01/17 10:54:18;;;;;;;22.88;11.77;;;;;;;6.28;90.15;98933.50;5055526;28;20504;-79
2023/01/17 10:56:43;;;;;;;24.45;12.55;;;;;;;4.99;96.90;98931.47;5072952;28;20028;-78
2023/01/17 10:59:15;;;;;;;15.90;6.88;;;;;;;3.97;100.00;98937.28;5055361;28;20029;-79
2023/01/17 11:01:41;;;;;;;23.95;10.35;;;;;;;3.44;100.00;98938.97;5055626;28;20032;-79
2023/01/17 11:04:19;;;;;;;23.52;13.00;;;;;;;3.19;100.00;98956.03;5071979;28;20497;-78
2023/01/17 11:06:46;;;;;;;28.13;15.30;;;;;;;2.69;100.00;98938.59;5039006;28;20489;-78
2023/01/17 11:09:12;;;;;;;17.48;10.43;;;;;;;2.38;100.00;98948.13;5055230;28;20025;-79
2023/01/17 11:11:48;;;;;;;21.42;9.30;;;;;;;2.45;100.00;98942.94;5055444;28;20047;-78
2023/01/17 11:14:23;;;;;;;15.65;8.95;;;;;;;2.74;100.00;98947.69;5055177;28;20538;-78
2023/01/17 11:17:03;;;;;;;26.25;12.88;;;;;;;4.05;100.00;98948.84;5071559;28;20332;-76
2023/01/17 11:19:31;;;;;;;113.82;27.65;;;;;;;5.43;100.00;98949.25;5054460;28;20074;-77
2023/01/17 11:22:05;;;;;;;54.97;19.38;;;;;;;5.98;97.81;98939.00;5071615;28;20082;-78
2023/01/17 11:24:54;;;;;;;29.92;8.98;;;;;;;5.30;100.00;98959.75;5042010;28;20363;-77
2023/01/17 11:27:25;;;;;;;17.52;6.10;;;;;;;5.14;99.57;98963.44;5036512;28;20040;-77
2023/01/17 11:30:17;;;;;;;14.90;7.55;;;;;;;4.55;100.00;98958.91;5075128;28;20047;-78
2023/01/17 11:32:54;;;;;;;27.83;11.85;;;;;;;4.29;100.00;98954.00;5059064;28;20040;-77
2023/01/17 11:35:20;;;;;;;12.52;5.60;;;;;;;4.28;100.00;98946.16;5042309;28;20040;-76
2023/01/17 11:37:57;;;;;;;15.27;5.70;;;;;;;3.30;100.00;98968.91;5041662;28;20498;-78
2023/01/17 11:40:26;;;;;;;18.55;7.90;;;;;;;2.54;100.00;98964.97;5074982;28;20032;-78
2023/01/17 11:43:10;;;;;;;26.33;10.07;;;;;;;2.62;100.00;98973.78;5074058;28;20059;-77
2023/01/17 11:45:37;;;;;;;21.40;10.82;;;;;;;3.49;100.00;98975.63;5075210;28;20504;-78
2023/01/17 11:48:08;;;;;;;26.27;13.73;;;;;;;3.85;100.00;98967.94;5042024;28;20040;-78
2023/01/17 11:50:40;;;;;;;20.73;8.10;;;;;;;4.02;100.00;98965.16;5075216;28;20032;-78
2023/01/17 11:53:24;;;;;;;11.82;6.70;;;;;;;3.30;100.00;98971.56;5058345;28;20225;-77
2023/01/17 11:55:52;;;;;;;23.02;9.07;;;;;;;2.44;100.00;98965.19;5074511;28;20025;-77
2023/01/17 11:58:19;;;;;;;18.13;9.18;;;;;;;2.16;100.00;98965.50;5076214;28;20047;-77
2023/01/17 12:01:01;;;;;;;16.90;8.63;;;;;;;2.48;100.00;98960.34;5074921;28;20032;-77
2023/01/17 12:03:39;;;;;;;31.33;13.60;;;;;;;2.58;100.00;98961.84;5058354;28;20029;-76
2023/01/17 12:06:25;;;;;;;30.08;12.30;;;;;;;3.23;100.00;98965.31;5041204;28;20043;-78
2023/01/17 12:09:10;;;;;;;26.10;10.43;;;;;;;4.55;100.00;98963.38;5057119;28;20033;-77
2023/01/17 12:13:59;;;;;;;15.98;7.80;;;;;;;3.94;100.00;98971.38;5074473;28;20429;-79
2023/01/17 12:14:55;;;;;;;24.65;11.45;;;;;;;4.43;100.00;98967.50;5074211;28;21095;-77
2023/01/17 12:17:41;;;;;;;13.98;6.88;;;;;;;4.02;100.00;98971.31;5020321;28;20040;-78
2023/01/17 12:20:27;;;;;;;23.55;8.25;;;;;;;2.39;100.00;98959.53;5073379;28;20074;-78
2023/01/17 12:23:04;;;;;;;31.88;10.05;;;;;;;2.79;100.00;98963.13;5073932;28;20475;-76
2023/01/17 12:25:32;;;;;;;13.35;4.45;;;;;;;3.89;100.00;98953.31;5041412;28;20444;-77
2023/01/17 12:28:22;;;;;;;26.02;8.38;;;;;;;4.16;100.00;98943.13;5074214;28;20072;-77
2023/01/17 12:31:03;;;;;;;27.83;8.77;;;;;;;3.95;100.00;98933.97;5073683;28;20043;-77
2023/01/17 12:33:37;;;;;;;24.35;8.10;;;;;;;4.61;100.00;98934.22;5072896;28;20462;-77
2023/01/17 12:36:08;;;;;;;32.78;10.02;;;;;;;5.80;97.42;98939.41;5073472;28;20036;-77
2023/01/17 12:38:37;;;;;;;36.67;14.82;;;;;;;7.09;90.74;98933.81;5056527;28;20036;-78
2023/01/17 12:41:05;;;;;;;25.00;10.48;;;;;;;7.42;89.70;98943.84;5040765;28;20041;-77
2023/01/17 12:43:36;;;;;;;14.13;6.47;;;;;;;7.37;88.54;98928.41;5073428;28;20040;-77
2023/01/17 12:46:25;;;;;;;17.70;7.60;;;;;;;7.27;91.31;98941.31;5073707;28;20035;-78
2023/01/17 12:49:20;;;;;;;12.90;5.72;;;;;;;8.87;86.17;98936.19;5073974;28;20086;-78
2023/01/17 12:51:51;;;;;;;17.35;5.63;;;;;;;10.18;80.53;98948.38;5055968;28;20037;-77
2023/01/17 12:54:20;;;;;;;10.15;4.55;;;;;;;10.88;78.76;98932.94;5073472;28;20029;-77
2023/01/17 12:56:53;;;;;;;10.65;3.83;;;;;;;11.74;74.25;98951.78;5073203;28;20036;-77
2023/01/17 12:59:31;;;;;;;9.85;3.33;;;;;;;12.17;73.63;98946.25;5056616;28;20044;-80